Terminal Aerodrome Forecast
Issued by NWS Jackson, KY

Home | Current Version | Previous Version | Text Only | Print | Product List | Glossary On
Versions: 1 2 3 4 5 6 7 8 9 10 11 12 13 14 15 16 17 18
180
FTUS43 KJKL 262339
TAFJKL
TAF
KJKL 262339Z 2700/2724 21005KT P6SM BKN070
     FM270200 21005KT 5SM BR BKN060
     FM271000 VRB03KT 4SM BR BKN025
     FM271400 22004KT 6SM -SHRA BKN050
     FM271800 22005KT P6SM VCTS BKN050CB
     FM272000 22005KT P6SM VCTS BKN045CB=

USA.gov is the U.S. government's official web portal to all federal, state and local government web resources and services.